Terminal Aerodrome Forecast
Issued by NWS

Home | Current Version | Previous Version | Text Only | Print | Product List | Glossary On
Versions: 1 2 3 4 5 6 7 8 9 10 11 12 13 14 15 16 17 18 19 20 21 22 23 24
000
FTUS41 KRLX 162326
TAFCKB
TAF
KCKB 162326Z 1700/1724 29005KT 1 1/2SM -SN OVC013
     FM170300 29003KT 5SM -SHSN OVC015
     FM170400 29003KT P6SM OVC017
     FM172100 25005KT P6SM SCT025=

USA.gov is the U.S. government's official web portal to all federal, state and local government web resources and services.